Wells, ME (04090)

12:08 AM EST on February 14, 2016 (GMT -0500)
Footbridge Beach | | Change Station
CLOSE
Current Station
Personal Weather Station
Location: Wells, ME
Elevation: 10 ft
Nearby Weather Stations
Active Advisory: Wind Chill Warning Active Notice: Public Information Statement

Elev 10 ft 43.26 °N, 70.59 °W | Updated 4 minutes ago

Clear
Clear
-10.7 °F
Feels Like -24 °F
N
5.3
Wind Variable Wind from SSE

Today
High -- | Low -- °F
--% Chance of Precip.
Yesterday
High -- | Low -- °F
Precip. -- in
Pressure 30.08 in
Visibility 10.0 miles
Clouds Clear
Windchill -24 °F
Dew Point -25 °F
Humidity 47%
Rainfall 0.00 in
Snow Depth Not available.
6:42 AM 5:11 PM
Waxing Crescent, 38% visible
METAR KSFM 140455Z AUTO 28010G15KT 10SM CLR M24/M33 A3008 RMK AO1 410601240
Pressure 30.08 in
Visibility 10.0 miles
Clouds Clear
Windchill -24 °F
Dew Point -25 °F
Humidity 47%
Rainfall 0.00 in
Snow Depth Not available.
6:42 AM 5:11 PM
Waxing Crescent, 38% visible
METAR KSFM 140455Z AUTO 28010G15KT 10SM CLR M24/M33 A3008 RMK AO1 410601240

10-Day Weather Forecast

Almanac

Astronomy

Feb. 14, 2016 Rise Set
Actual Time
Civil Twilight
Nautical Twilight
Astronomical Twilight
Moon
Length of Visible Light
Length of Day
Tomorrow will be .
, % of the Moon is Illuminated

Today's Extremes

State Highs State Lows

Community

WunderPhotos

Upload Photos

1,892,748 photos uploaded!

WunderBlog® & News

Nearby

Air Quality

  Air Quality AQ Index Pollutant
Not available.

Snow Depth

Station Depth Elevation

Earthquake Activity

City Distance Mag. Time & Date
Minimum magnitude displayed is 2.5.

Coastal Water Temperatures

Place Temperature

Stations

Nearby Weather Stations

Station Location Temp. Windchill Dew Point Humidity Wind Precip. Elev Updated Type
                   

Watches & Warnings

Wind Chill Warning
Issued: 9:10 PM EST Feb. 13, 2016 – National Weather Service

... Wind chill warning in effect until 10 am EST Sunday...

The National Weather Service in gray has issued a wind chill
warning... which is in effect until 10 am EST Sunday. The Wind
Chill Advisory is no longer in effect.

* Hazard types... low wind chills

* wind chill... as low as 31 below due to temperatures 2 below to
11 below zero... and winds northwest 10 to 20 mph with gusts up
to 30 mph.

* Timing... tonight and Sunday morning.

* Impacts... frostbite and hypothermia if unprotected from the
cold.

* Winds... northwest 10 to 20 mph with gusts up to 30 mph.

* Temperatures... 2 below to 11 below zero.

Precautionary/preparedness actions...

A wind chill warning means the combination of very cold air and
strong winds will create dangerously low wind chill values. This
will result in frost bite and lead to hypothermia or death if
precautions are not taken.